Time;durP1;ratioP1;P1;durP2;ratioP2;P2;SDS_P1;SDS_P2;PMS_P1;PMS_P2;Temp;Humidity;BMP_temperature;BMP_pressure;BME280_temperature;BME280_humidity;BME280_pressure;Samples;Min_cycle;Max_cycle;Signal;HPM_P1;HPM_P2
2023/10/21 00:01:39;;;;;;;2.10;2.00;;;16.80;43.40;;;;;;10393673;28;20283;-75
2023/10/21 00:06:44;;;;;;;1.97;1.87;;;16.80;43.60;;;;;;10396075;28;20241;-72
2023/10/21 00:11:47;;;;;;;1.77;1.67;;;16.70;43.70;;;;;;10384584;28;20225;-71
2023/10/21 00:16:51;;;;;;;1.70;1.60;;;16.70;43.60;;;;;;10391795;28;20245;-71
2023/10/21 00:21:56;;;;;;;2.57;1.20;;;16.70;43.70;;;;;;10388792;28;20229;-72
2023/10/21 00:26:59;;;;;;;1.10;1.10;;;16.70;43.70;;;;;;10388714;28;20225;-72
2023/10/21 00:32:04;;;;;;;1.10;1.10;;;16.60;43.60;;;;;;10391316;28;20225;-72
2023/10/21 00:37:09;;;;;;;1.10;1.00;;;16.50;43.60;;;;;;10391630;28;20312;-72
2023/10/21 00:42:13;;;;;;;1.30;1.20;;;16.60;43.80;;;;;;10389022;28;20235;-72
2023/10/21 00:47:17;;;;;;;1.10;1.10;;;16.50;43.40;;;;;;10396396;28;20229;-72
2023/10/21 00:52:21;;;;;;;1.17;1.17;;;16.40;43.40;;;;;;10396972;28;20402;-72
2023/10/21 00:57:25;;;;;;;1.20;1.10;;;16.40;43.50;;;;;;10401055;28;20304;-73
2023/10/21 01:02:28;;;;;;;0.70;0.70;;;16.20;43.50;;;;;;10401228;28;20249;-73
2023/10/21 01:07:35;;;;;;;1.13;1.03;;;16.00;43.90;;;;;;10377819;28;20309;-73
2023/10/21 01:12:39;;;;;;;1.20;1.20;;;15.90;44.80;;;;;;10395030;28;20711;-72
2023/10/21 01:17:42;;;;;;;1.40;1.30;;;15.90;44.30;;;;;;10398040;28;20332;-75
2023/10/21 01:22:47;;;;;;;2.60;1.17;;;15.90;44.30;;;;;;10396889;28;20734;-75
2023/10/21 01:27:54;;;;;;;1.10;1.10;;;15.90;44.60;;;;;;10394322;28;20222;-75
2023/10/21 01:32:58;;;;;;;1.00;1.00;;;15.90;44.90;;;;;;10394666;28;20237;-75
2023/10/21 01:38:01;;;;;;;1.60;1.50;;;15.90;44.40;;;;;;10397613;28;20265;-75
2023/10/21 01:43:05;;;;;;;1.97;1.43;;;16.00;44.30;;;;;;10395504;28;20250;-75
2023/10/21 01:48:09;;;;;;;1.30;1.20;;;15.90;44.20;;;;;;10397733;28;20228;-76
2023/10/21 01:53:13;;;;;;;1.30;1.20;;;15.90;44.00;;;;;;10398152;28;20747;-75
2023/10/21 01:58:18;;;;;;;1.30;1.20;;;15.80;43.80;;;;;;10389234;28;20317;-73
2023/10/21 02:03:21;;;;;;;1.30;1.20;;;15.70;44.30;;;;;;10388798;28;20241;-73
2023/10/21 02:08:25;;;;;;;1.20;1.10;;;15.60;44.10;;;;;;10391541;28;20221;-72
2023/10/21 02:13:29;;;;;;;1.80;1.20;;;15.50;44.60;;;;;;10396513;28;20255;-73
2023/10/21 02:18:33;;;;;;;1.67;1.30;;;15.40;44.70;;;;;;10393245;28;20244;-73
2023/10/21 02:23:36;;;;;;;1.67;1.50;;;15.40;44.70;;;;;;10387124;28;20233;-72
2023/10/21 02:28:40;;;;;;;2.07;1.80;;;15.40;44.70;;;;;;10391332;28;20256;-72
2023/10/21 02:33:44;;;;;;;3.13;1.80;;;15.40;44.70;;;;;;10391308;28;21029;-72
2023/10/21 02:38:47;;;;;;;1.83;1.73;;;15.40;44.70;;;;;;10393559;28;20225;-72
2023/10/21 02:43:52;;;;;;;2.60;2.40;;;15.30;44.60;;;;;;10393073;28;20769;-72
2023/10/21 02:48:55;;;;;;;1.97;1.60;;;15.30;44.60;;;;;;10385148;28;20233;-72
2023/10/21 02:53:58;;;;;;;2.17;2.00;;;15.20;44.60;;;;;;10393096;28;20240;-72
2023/10/21 02:59:03;;;;;;;3.50;2.53;;;15.20;45.00;;;;;;10390010;28;20742;-72
2023/10/21 03:04:07;;;;;;;3.03;2.07;;;15.20;45.30;;;;;;10393131;28;20305;-73
2023/10/21 03:09:10;;;;;;;2.07;1.87;;;15.20;45.10;;;;;;10387527;28;20268;-73
2023/10/21 03:14:15;;;;;;;1.50;1.40;;;15.20;45.10;;;;;;10389175;28;20226;-72
2023/10/21 03:19:18;;;;;;;3.07;1.20;;;15.20;45.40;;;;;;10389082;28;20731;-72
2023/10/21 03:24:21;;;;;;;1.30;1.10;;;15.20;45.10;;;;;;10396151;28;20245;-73
2023/10/21 03:29:26;;;;;;;1.77;1.23;;;15.20;45.20;;;;;;10385596;28;20225;-72
2023/10/21 03:34:29;;;;;;;1.93;1.10;;;15.20;45.60;;;;;;10388327;28;20577;-72
2023/10/21 03:39:32;;;;;;;1.10;1.10;;;15.10;45.40;;;;;;10393806;28;20307;-72
2023/10/21 03:44:37;;;;;;;1.20;1.10;;;15.10;45.60;;;;;;10387220;28;20226;-73
2023/10/21 03:49:40;;;;;;;1.90;1.10;;;15.10;46.10;;;;;;10393885;28;20229;-71
2023/10/21 03:54:43;;;;;;;3.27;1.20;;;15.10;45.60;;;;;;10379084;28;20329;-72
2023/10/21 03:59:47;;;;;;;2.23;1.33;;;15.10;45.80;;;;;;10393563;28;20731;-72
2023/10/21 04:04:51;;;;;;;1.83;1.10;;;15.10;46.10;;;;;;10389752;28;20238;-72
2023/10/21 04:09:54;;;;;;;1.30;1.20;;;15.20;45.80;;;;;;10393412;28;20238;-73
2023/10/21 04:14:58;;;;;;;1.87;1.30;;;15.20;45.80;;;;;;10393846;28;20221;-73
2023/10/21 04:20:03;;;;;;;1.47;1.20;;;15.20;46.10;;;;;;10393735;28;20234;-72
2023/10/21 04:25:08;;;;;;;2.30;1.10;;;15.10;45.90;;;;;;10402956;28;20213;-73
2023/10/21 04:30:13;;;;;;;1.27;1.17;;;15.10;46.10;;;;;;10401327;28;20382;-73
2023/10/21 04:35:17;;;;;;;1.10;1.00;;;15.10;46.30;;;;;;10399857;28;20707;-73
2023/10/21 04:40:20;;;;;;;1.10;1.10;;;15.10;46.10;;;;;;10399631;28;20234;-72
2023/10/21 04:45:24;;;;;;;1.33;1.10;;;15.00;46.10;;;;;;10404145;28;20225;-72
2023/10/21 04:50:28;;;;;;;1.53;1.43;;;15.00;46.40;;;;;;10399349;28;20233;-73
2023/10/21 04:55:31;;;;;;;1.33;1.10;;;15.00;46.90;;;;;;10399082;28;20343;-72
2023/10/21 05:00:36;;;;;;;1.47;1.10;;;15.00;46.20;;;;;;10405218;28;20237;-72
2023/10/21 05:05:39;;;;;;;1.83;1.27;;;15.10;46.40;;;;;;10400466;28;20237;-72
2023/10/21 05:10:45;;;;;;;1.80;1.00;;;15.10;46.10;;;;;;10394863;28;20237;-72
2023/10/21 05:15:50;;;;;;;1.57;0.80;;;15.20;46.30;;;;;;10392480;28;20229;-72
2023/10/21 05:20:53;;;;;;;0.90;0.90;;;15.20;46.30;;;;;;10393552;28;20226;-72
2023/10/21 05:25:56;;;;;;;3.90;1.00;;;15.20;46.20;;;;;;10395805;28;20223;-72
2023/10/21 05:31:02;;;;;;;1.00;0.90;;;15.20;46.20;;;;;;10400666;28;20651;-72
2023/10/21 05:36:05;;;;;;;1.03;0.90;;;15.30;46.30;;;;;;10388177;28;20257;-73
2023/10/21 05:41:09;;;;;;;2.23;1.10;;;15.30;46.10;;;;;;10398151;28;20230;-72
2023/10/21 05:46:13;;;;;;;1.30;1.10;;;15.30;46.10;;;;;;10398621;28;20745;-75
2023/10/21 05:51:16;;;;;;;1.30;1.20;;;15.30;46.10;;;;;;10388659;28;20250;-74
2023/10/21 05:56:20;;;;;;;1.63;1.50;;;15.30;46.00;;;;;;10389514;28;20221;-74
2023/10/21 06:01:25;;;;;;;3.63;2.13;;;15.40;46.10;;;;;;10397074;28;20275;-74
2023/10/21 06:06:28;;;;;;;1.90;1.80;;;15.40;46.20;;;;;;10396960;28;20229;-71
2023/10/21 06:11:31;;;;;;;2.03;1.83;;;15.50;46.10;;;;;;10396638;28;20233;-72
2023/10/21 06:16:36;;;;;;;1.20;1.10;;;15.60;46.10;;;;;;10395879;28;20240;-71
2023/10/21 06:21:40;;;;;;;1.30;1.20;;;15.60;46.10;;;;;;10392846;28;20640;-72
2023/10/21 06:26:43;;;;;;;1.17;1.00;;;15.70;46.00;;;;;;10393010;28;20226;-71
2023/10/21 06:31:48;;;;;;;0.70;0.70;;;15.70;45.90;;;;;;10390339;28;20229;-71
2023/10/21 06:36:51;;;;;;;0.80;0.80;;;15.70;46.20;;;;;;10394140;28;20229;-70
2023/10/21 06:41:54;;;;;;;2.97;1.10;;;15.70;46.10;;;;;;10388242;28;20233;-71
2023/10/21 06:46:59;;;;;;;1.30;1.20;;;15.70;46.10;;;;;;10395811;28;20256;-71
2023/10/21 06:52:02;;;;;;;2.10;1.90;;;15.80;46.60;;;;;;10392562;28;20221;-71
2023/10/21 06:57:06;;;;;;;1.60;1.50;;;15.80;46.30;;;;;;10394122;28;20237;-74
2023/10/21 07:02:11;;;;;;;1.50;1.40;;;15.90;46.30;;;;;;10390649;28;20723;-74
2023/10/21 07:07:15;;;;;;;1.30;1.20;;;16.00;46.30;;;;;;10389427;28;20232;-74
2023/10/21 07:12:19;;;;;;;2.20;1.80;;;16.10;46.30;;;;;;10395679;28;20720;-75
2023/10/21 07:17:23;;;;;;;1.60;1.50;;;16.20;46.20;;;;;;10389491;28;20241;-74
2023/10/21 07:22:26;;;;;;;2.30;2.10;;;16.30;46.00;;;;;;10391199;28;20232;-74
2023/10/21 07:27:30;;;;;;;2.30;2.00;;;16.40;45.90;;;;;;10392917;28;20752;-73
2023/10/21 07:32:35;;;;;;;4.07;3.07;;;16.50;45.90;;;;;;10388744;28;20237;-71
2023/10/21 07:37:38;;;;;;;4.83;2.60;;;16.60;45.70;;;;;;10391032;28;20304;-73
2023/10/21 07:42:41;;;;;;;2.40;2.20;;;16.70;45.80;;;;;;10393453;28;20233;-75
2023/10/21 07:47:46;;;;;;;1.90;1.70;;;16.80;45.90;;;;;;10392457;28;20229;-74
2023/10/21 07:52:49;;;;;;;2.70;1.50;;;16.90;46.10;;;;;;10391973;28;20226;-74
2023/10/21 07:57:53;;;;;;;2.30;1.57;;;17.00;46.10;;;;;;10389039;28;20229;-74
2023/10/21 08:02:58;;;;;;;1.67;1.53;;;17.10;46.20;;;;;;10394542;28;20249;-74
2023/10/21 08:08:03;;;;;;;1.80;1.20;;;17.20;46.20;;;;;;10388911;28;20241;-72
2023/10/21 08:13:06;;;;;;;1.73;1.30;;;17.40;46.10;;;;;;10394571;28;20299;-72
2023/10/21 08:18:11;;;;;;;2.23;2.10;;;17.50;45.80;;;;;;10391250;28;20251;-74
2023/10/21 08:23:14;;;;;;;2.10;1.90;;;17.60;45.80;;;;;;10391412;28;20340;-74
2023/10/21 08:28:17;;;;;;;1.70;1.40;;;17.70;45.60;;;;;;10384834;28;20229;-74
2023/10/21 08:33:21;;;;;;;1.93;1.10;;;17.80;45.50;;;;;;10389479;28;20228;-75
2023/10/21 08:38:25;;;;;;;1.63;1.20;;;17.90;45.20;;;;;;10393275;28;20320;-72
2023/10/21 08:43:28;;;;;;;1.10;1.10;;;18.00;45.60;;;;;;10388413;28;20332;-72
2023/10/21 08:48:35;;;;;;;1.37;0.90;;;18.20;45.60;;;;;;10392030;28;20697;-72
2023/10/21 08:53:39;;;;;;;0.90;0.90;;;18.30;44.80;;;;;;10382102;28;20230;-73
2023/10/21 08:58:43;;;;;;;1.00;0.90;;;18.50;46.00;;;;;;10390111;28;20232;-74
2023/10/21 09:03:48;;;;;;;0.77;0.70;;;18.60;45.00;;;;;;10396294;28;20594;-76
2023/10/21 09:08:51;;;;;;;0.63;0.63;;;18.70;44.50;;;;;;10388340;28;20663;-75
2023/10/21 09:13:59;;;;;;;0.70;0.70;;;18.80;44.40;;;;;;10393825;28;20240;-76
2023/10/21 09:19:05;;;;;;;0.90;0.90;;;19.00;44.30;;;;;;10395577;28;20229;-75
2023/10/21 09:24:10;;;;;;;0.70;0.70;;;19.20;44.90;;;;;;10400203;28;20784;-73
2023/10/21 09:29:16;;;;;;;0.80;0.80;;;19.40;44.90;;;;;;10392218;28;20283;-72
2023/10/21 09:34:29;;;;;;;0.87;0.87;;;19.60;44.30;;;;;;10398557;28;20731;-72
2023/10/21 09:39:34;;;;;;;0.70;0.70;;;19.70;43.30;;;;;;10397825;28;20228;-72
2023/10/21 09:44:39;;;;;;;0.73;0.70;;;19.90;43.90;;;;;;10393340;28;20229;-73
2023/10/21 09:49:46;;;;;;;0.67;0.67;;;20.00;44.00;;;;;;10397493;28;20237;-72
2023/10/21 09:54:56;;;;;;;1.70;0.70;;;20.10;43.30;;;;;;10396755;28;20239;-72
2023/10/21 10:00:00;;;;;;;1.20;0.70;;;20.20;42.90;;;;;;10394872;28;20236;-73
2023/10/21 10:05:07;;;;;;;0.87;0.87;;;20.30;43.30;;;;;;10392588;28;20264;-73
2023/10/21 10:10:12;;;;;;;0.50;0.50;;;20.40;42.90;;;;;;10394021;28;20237;-77
2023/10/21 10:15:33;;;;;;;0.40;0.40;;;20.50;42.50;;;;;;10398038;28;20244;-75
2023/10/21 10:20:45;;;;;;;0.50;0.50;;;20.70;41.30;;;;;;10387592;28;20234;-78
2023/10/21 10:25:51;;;;;;;0.50;0.50;;;20.80;40.40;;;;;;10397395;28;20236;-72
2023/10/21 10:30:56;;;;;;;1.20;0.60;;;20.90;41.80;;;;;;10398449;28;20245;-72
2023/10/21 10:36:06;;;;;;;0.50;0.50;;;21.00;41.60;;;;;;10391387;28;20253;-72
2023/10/21 10:41:15;;;;;;;0.60;0.60;;;21.00;41.20;;;;;;10392655;28;20603;-73
2023/10/21 10:46:20;;;;;;;1.23;0.50;;;21.20;40.70;;;;;;10391355;28;20727;-72
2023/10/21 10:51:27;;;;;;;0.50;0.50;;;21.40;41.70;;;;;;10395374;28;21032;-78
2023/10/21 10:56:40;;;;;;;1.00;1.00;;;21.50;40.40;;;;;;10397537;28;20225;-76
2023/10/21 11:01:43;;;;;;;1.70;1.60;;;21.70;38.00;;;;;;10392918;28;20316;-77
2023/10/21 11:06:49;;;;;;;0.70;0.70;;;21.70;40.10;;;;;;10390889;28;20223;-77
2023/10/21 11:11:54;;;;;;;0.60;0.60;;;21.70;39.00;;;;;;10389161;28;20221;-75
2023/10/21 11:17:12;;;;;;;0.40;0.40;;;21.70;39.00;;;;;;10391910;28;20326;-77
2023/10/21 11:22:22;;;;;;;0.50;0.50;;;21.70;39.20;;;;;;10390047;28;20309;-77
2023/10/21 11:27:25;;;;;;;0.40;0.40;;;21.70;38.00;;;;;;10388700;28;20230;-76
2023/10/21 11:32:31;;;;;;;0.40;0.40;;;21.60;38.80;;;;;;10389298;28;20225;-76
2023/10/21 11:37:37;;;;;;;0.60;0.50;;;21.60;38.50;;;;;;10392918;28;20226;-77
2023/10/21 11:42:42;;;;;;;0.40;0.40;;;21.60;38.20;;;;;;10391466;28;20232;-75
2023/10/21 11:47:47;;;;;;;0.70;0.50;;;21.70;38.80;;;;;;10383036;28;20756;-77
2023/10/21 11:52:52;;;;;;;0.50;0.50;;;21.80;38.60;;;;;;10386763;28;20221;-75
2023/10/21 12:14:56;;;;;;;0.77;0.50;;;22.00;36.70;;;;;;10376664;28;20225;-73
2023/10/21 12:36:20;;;;;;;1.23;0.50;;;22.00;36.60;;;;;;10364518;28;20400;-73
2023/10/21 12:41:27;;;;;;;17.30;6.67;;;22.00;36.90;;;;;;10383907;28;20340;-74
2023/10/21 12:46:37;;;;;;;1.33;0.90;;;21.90;36.20;;;;;;10389705;28;20279;-74
2023/10/21 12:51:40;;;;;;;0.60;0.60;;;21.80;36.70;;;;;;10386485;28;20230;-73
2023/10/21 12:56:45;;;;;;;0.40;0.40;;;21.80;36.20;;;;;;10381596;28;20594;-77
2023/10/21 13:01:49;;;;;;;0.80;0.80;;;21.80;35.50;;;;;;10389681;28;20332;-76
2023/10/21 13:06:53;;;;;;;1.43;0.60;;;21.80;36.00;;;;;;10386231;28;20746;-74
2023/10/21 13:11:58;;;;;;;0.60;0.60;;;21.80;36.20;;;;;;10389235;28;20240;-74
2023/10/21 13:17:07;;;;;;;0.60;0.60;;;21.70;34.90;;;;;;10385890;28;20218;-73
2023/10/21 13:22:11;;;;;;;0.40;0.40;;;21.70;35.70;;;;;;10388168;28;20859;-73
2023/10/21 13:27:15;;;;;;;0.60;0.60;;;21.60;35.40;;;;;;10390187;28;20237;-77
2023/10/21 13:32:19;;;;;;;0.50;0.50;;;21.60;34.70;;;;;;10386785;28;20227;-77
2023/10/21 13:37:22;;;;;;;0.60;0.60;;;21.60;35.70;;;;;;10388147;28;20821;-73
2023/10/21 13:42:28;;;;;;;0.60;0.60;;;21.60;35.80;;;;;;10384873;28;20752;-72
2023/10/21 13:47:31;;;;;;;0.40;0.40;;;21.60;34.80;;;;;;10382816;28;20414;-82
2023/10/21 13:52:34;;;;;;;0.40;0.40;;;21.60;35.20;;;;;;10387365;28;20229;-74
2023/10/21 13:57:39;;;;;;;0.67;0.40;;;21.60;35.60;;;;;;10386770;28;20229;-76
2023/10/21 14:02:42;;;;;;;0.47;0.47;;;21.60;35.00;;;;;;10384475;28;20319;-75
2023/10/21 14:07:46;;;;;;;0.60;0.60;;;21.60;35.70;;;;;;10382815;28;20217;-74
2023/10/21 14:12:51;;;;;;;0.67;0.50;;;21.60;35.80;;;;;;10385123;28;20226;-79
2023/10/21 14:17:54;;;;;;;1.77;0.60;;;21.60;35.60;;;;;;10384417;28;20237;-79
2023/10/21 14:22:57;;;;;;;1.03;0.50;;;21.60;36.00;;;;;;10388809;28;20233;-76
2023/10/21 14:28:02;;;;;;;0.40;0.40;;;21.60;36.10;;;;;;10382651;28;20235;-74
2023/10/21 14:33:05;;;;;;;1.33;0.50;;;21.50;35.90;;;;;;10388002;28;20957;-73
2023/10/21 14:38:09;;;;;;;0.40;0.40;;;21.60;36.50;;;;;;10387180;28;20608;-79
2023/10/21 14:43:15;;;;;;;0.50;0.50;;;21.60;36.00;;;;;;10388111;28;20749;-77
2023/10/21 14:48:20;;;;;;;1.50;0.67;;;21.60;35.80;;;;;;10381796;28;20645;-78
2023/10/21 14:53:23;;;;;;;0.43;0.43;;;21.60;36.10;;;;;;10384775;28;20306;-78
2023/10/21 14:58:27;;;;;;;0.80;0.60;;;21.50;36.20;;;;;;10385881;28;20225;-77
2023/10/21 15:03:31;;;;;;;0.60;0.60;;;21.50;36.10;;;;;;10382906;28;21042;-78
2023/10/21 15:08:34;;;;;;;0.73;0.60;;;21.50;36.70;;;;;;10380487;28;20241;-78
2023/10/21 15:13:39;;;;;;;0.60;0.60;;;21.50;36.40;;;;;;10380948;28;20241;-78
2023/10/21 15:18:42;;;;;;;0.53;0.53;;;21.40;35.60;;;;;;10383591;28;20225;-73
2023/10/21 15:23:46;;;;;;;0.67;0.67;;;21.40;35.90;;;;;;10384825;28;20236;-73
2023/10/21 15:28:50;;;;;;;1.80;0.63;;;21.30;36.20;;;;;;10384659;28;20217;-73
2023/10/21 15:33:57;;;;;;;0.60;0.60;;;21.20;35.80;;;;;;10384780;28;20343;-73
2023/10/21 15:39:01;;;;;;;0.83;0.60;;;21.20;36.20;;;;;;10383045;28;20240;-74
2023/10/21 15:44:07;;;;;;;0.60;0.60;;;21.10;36.20;;;;;;10384748;28;20312;-73
2023/10/21 15:49:10;;;;;;;0.87;0.87;;;21.10;36.20;;;;;;10382488;28;20237;-73
2023/10/21 15:54:13;;;;;;;1.00;0.90;;;21.10;36.30;;;;;;10383613;28;20653;-73
2023/10/21 15:59:17;;;;;;;0.90;0.90;;;21.00;36.30;;;;;;10378493;28;20937;-73
2023/10/21 16:04:21;;;;;;;0.90;0.90;;;20.90;36.10;;;;;;10384218;28;20228;-74
2023/10/21 16:09:28;;;;;;;0.83;0.83;;;20.90;36.10;;;;;;10386550;28;20236;-74
2023/10/21 16:14:32;;;;;;;0.87;0.87;;;20.70;35.90;;;;;;10392509;28;20234;-73
2023/10/21 16:19:36;;;;;;;0.80;0.80;;;20.60;35.80;;;;;;10398800;28;20305;-74
2023/10/21 16:24:39;;;;;;;1.33;0.70;;;20.40;36.20;;;;;;10399253;28;20908;-74
2023/10/21 16:29:44;;;;;;;0.93;0.83;;;20.20;36.40;;;;;;10396777;28;20232;-74
2023/10/21 16:34:47;;;;;;;0.80;0.80;;;20.10;36.60;;;;;;10399766;28;20708;-74
2023/10/21 16:39:51;;;;;;;1.00;0.90;;;19.90;36.40;;;;;;10394425;28;20243;-74
2023/10/21 16:44:57;;;;;;;1.87;1.03;;;19.80;36.40;;;;;;10393108;28;20650;-74
2023/10/21 16:50:00;;;;;;;1.13;1.13;;;19.70;36.70;;;;;;10397229;28;20240;-74
2023/10/21 16:55:04;;;;;;;1.27;1.20;;;19.60;36.90;;;;;;10394555;28;20221;-77
2023/10/21 17:00:12;;;;;;;1.50;1.30;;;19.50;37.20;;;;;;10395335;28;20229;-78
2023/10/21 17:05:16;;;;;;;1.67;1.10;;;19.40;37.80;;;;;;10393524;28;20241;-78
2023/10/21 17:10:20;;;;;;;1.10;1.10;;;19.30;37.70;;;;;;10391742;28;20241;-75
2023/10/21 17:15:25;;;;;;;1.00;1.00;;;19.20;37.70;;;;;;10399327;28;20237;-75
2023/10/21 17:20:30;;;;;;;0.90;0.90;;;19.00;38.00;;;;;;10394868;28;20603;-75
2023/10/21 17:25:33;;;;;;;0.77;0.77;;;18.80;37.70;;;;;;10392478;28;20316;-75
2023/10/21 17:30:38;;;;;;;0.70;0.70;;;18.70;37.70;;;;;;10389272;28;20712;-75
2023/10/21 17:35:41;;;;;;;0.70;0.70;;;18.50;37.50;;;;;;10381680;28;20222;-75
2023/10/21 17:40:45;;;;;;;0.80;0.80;;;18.40;37.50;;;;;;10387772;28;20747;-75
2023/10/21 17:45:50;;;;;;;0.80;0.70;;;18.30;37.70;;;;;;10380181;28;20236;-73
2023/10/21 17:50:54;;;;;;;1.00;0.90;;;18.20;38.00;;;;;;10386537;28;20229;-73
2023/10/21 17:55:58;;;;;;;3.13;1.43;;;18.20;38.10;;;;;;10384499;28;20237;-74
2023/10/21 18:01:04;;;;;;;1.47;1.37;;;18.20;38.50;;;;;;10385612;28;20321;-74
2023/10/21 18:06:08;;;;;;;1.57;1.47;;;18.10;38.80;;;;;;10380861;28;20236;-74
2023/10/21 18:11:11;;;;;;;1.77;1.63;;;18.00;38.80;;;;;;10386704;28;20275;-73
2023/10/21 18:16:16;;;;;;;1.50;1.40;;;17.90;38.90;;;;;;10381467;28;20233;-74
2023/10/21 18:21:19;;;;;;;1.17;1.07;;;17.90;39.50;;;;;;10383436;28;20316;-78
2023/10/21 18:26:23;;;;;;;1.90;1.80;;;17.90;39.30;;;;;;10383543;28;20249;-78
2023/10/21 18:31:28;;;;;;;2.63;1.70;;;17.90;39.20;;;;;;10389662;28;20230;-76
2023/10/21 18:36:31;;;;;;;1.30;1.20;;;17.80;39.10;;;;;;10384296;28;20251;-75
2023/10/21 18:41:34;;;;;;;1.87;1.77;;;17.70;39.30;;;;;;10385816;28;20848;-76
2023/10/21 18:46:40;;;;;;;8.07;7.33;;;17.50;39.30;;;;;;10387055;28;20930;-77
2023/10/21 18:51:43;;;;;;;4.67;4.27;;;17.40;39.90;;;;;;10385303;28;20229;-75
2023/10/21 18:56:47;;;;;;;16.67;12.23;;;17.20;40.00;;;;;;10381488;28;20283;-75
2023/10/21 19:01:51;;;;;;;10.00;7.00;;;17.10;40.20;;;;;;10378424;28;20688;-75
2023/10/21 19:06:55;;;;;;;4.23;3.83;;;17.10;41.00;;;;;;10372247;28;20229;-75
2023/10/21 19:12:03;;;;;;;3.70;3.40;;;17.20;40.50;;;;;;10378656;28;20236;-77
2023/10/21 19:17:07;;;;;;;2.90;2.70;;;17.00;40.30;;;;;;10370389;28;20225;-76
2023/10/21 19:22:11;;;;;;;1.93;1.70;;;17.00;40.70;;;;;;10375014;28;20858;-76
2023/10/21 19:27:14;;;;;;;1.73;1.50;;;16.90;40.40;;;;;;10377567;28;20613;-76
2023/10/21 19:32:19;;;;;;;1.47;1.30;;;16.90;40.60;;;;;;10377171;28;20229;-75
2023/10/21 19:37:22;;;;;;;1.40;1.17;;;16.90;40.90;;;;;;10373883;28;20309;-75
2023/10/21 19:42:26;;;;;;;1.30;1.20;;;16.90;40.40;;;;;;10373187;28;20257;-75
2023/10/21 19:47:31;;;;;;;1.70;1.00;;;16.70;40.60;;;;;;10370778;28;20236;-75
2023/10/21 19:52:34;;;;;;;1.70;1.23;;;16.60;41.10;;;;;;10370709;28;20236;-75
2023/10/21 19:57:37;;;;;;;1.43;1.33;;;16.50;40.80;;;;;;10372037;28;20221;-75
2023/10/21 20:02:42;;;;;;;2.03;1.80;;;16.50;41.00;;;;;;10378080;28;20700;-76
2023/10/21 20:07:46;;;;;;;1.10;1.00;;;16.40;41.40;;;;;;10368906;28;20229;-76
2023/10/21 20:12:49;;;;;;;1.00;0.90;;;16.30;41.00;;;;;;10376491;28;20226;-76
2023/10/21 20:17:55;;;;;;;2.03;1.20;;;16.20;41.00;;;;;;10377183;28;20221;-75
2023/10/21 20:22:58;;;;;;;1.50;1.40;;;16.20;41.90;;;;;;10378629;28;20299;-75
2023/10/21 20:28:01;;;;;;;1.50;1.40;;;16.20;41.50;;;;;;10374325;28;20224;-75
2023/10/21 20:33:06;;;;;;;1.50;1.40;;;16.20;41.60;;;;;;10375918;28;20264;-73
2023/10/21 20:38:10;;;;;;;1.57;1.43;;;16.30;42.00;;;;;;10374122;28;20225;-74
2023/10/21 20:43:13;;;;;;;1.70;1.60;;;16.30;41.60;;;;;;10377953;28;20233;-73
2023/10/21 20:48:18;;;;;;;1.30;1.20;;;16.40;41.60;;;;;;10369268;28;20254;-73
2023/10/21 20:53:21;;;;;;;1.60;1.50;;;16.40;42.10;;;;;;10382430;28;20573;-73
2023/10/21 20:58:25;;;;;;;1.27;1.17;;;16.40;41.70;;;;;;10385459;28;20229;-73
2023/10/21 21:03:29;;;;;;;1.70;1.60;;;16.40;41.80;;;;;;10395508;28;20225;-73
2023/10/21 21:08:32;;;;;;;2.10;2.00;;;16.40;42.40;;;;;;10393280;28;20222;-73
2023/10/21 21:13:36;;;;;;;2.10;1.90;;;16.40;41.90;;;;;;10397458;28;20234;-73
2023/10/21 21:18:40;;;;;;;2.20;1.97;;;16.30;42.10;;;;;;10389862;28;21282;-74
2023/10/21 21:23:44;;;;;;;1.97;1.87;;;16.30;42.50;;;;;;10393979;28;20234;-73
2023/10/21 21:28:47;;;;;;;2.30;2.10;;;16.30;42.20;;;;;;10391522;28;20228;-73
2023/10/21 21:33:53;;;;;;;2.20;1.90;;;16.30;42.40;;;;;;10394854;28;20245;-73
2023/10/21 21:38:56;;;;;;;2.53;2.20;;;16.30;42.70;;;;;;10386667;28;20218;-73
2023/10/21 21:43:59;;;;;;;1.90;1.80;;;16.40;42.40;;;;;;10391531;28;20579;-74
2023/10/21 21:49:04;;;;;;;2.53;2.33;;;16.50;42.40;;;;;;10386103;28;20230;-74
2023/10/21 21:54:07;;;;;;;3.73;3.43;;;16.60;42.80;;;;;;10391692;28;20231;-74
2023/10/21 21:59:11;;;;;;;3.40;2.70;;;16.70;42.30;;;;;;10390118;28;20228;-74
2023/10/21 22:04:17;;;;;;;1.67;1.57;;;16.60;41.90;;;;;;10395395;28;20252;-74
2023/10/21 22:09:21;;;;;;;1.30;1.20;;;16.50;42.00;;;;;;10388664;28;20312;-73
2023/10/21 22:14:24;;;;;;;0.90;0.90;;;16.40;41.70;;;;;;10391646;28;20233;-74
2023/10/21 22:19:30;;;;;;;1.50;1.40;;;16.30;41.90;;;;;;10395277;28;20245;-74
2023/10/21 22:24:34;;;;;;;2.10;1.70;;;16.20;42.50;;;;;;10395542;28;20261;-74
2023/10/21 22:29:41;;;;;;;1.77;1.67;;;16.10;42.20;;;;;;10388774;28;20253;-74
2023/10/21 22:34:46;;;;;;;1.37;1.07;;;16.00;42.30;;;;;;10398378;28;20214;-73
2023/10/21 22:39:49;;;;;;;0.93;0.93;;;15.80;42.80;;;;;;10396726;28;20260;-73
2023/10/21 22:44:52;;;;;;;2.00;1.00;;;15.60;42.70;;;;;;10390335;28;20316;-75
2023/10/21 22:49:57;;;;;;;0.90;0.90;;;15.60;42.90;;;;;;10393170;28;20265;-75
2023/10/21 22:55:00;;;;;;;0.80;0.80;;;15.60;43.40;;;;;;10397776;28;20257;-75
2023/10/21 23:00:11;;;;;;;1.33;1.03;;;15.60;43.20;;;;;;10396049;28;20686;-75
2023/10/21 23:05:15;;;;;;;1.00;1.00;;;15.60;43.40;;;;;;10389411;28;20671;-75
2023/10/21 23:10:21;;;;;;;1.00;0.83;;;15.60;43.70;;;;;;10391497;28;20238;-75
2023/10/21 23:15:24;;;;;;;0.90;0.90;;;15.60;43.40;;;;;;10398898;28;20232;-75
2023/10/21 23:20:29;;;;;;;0.97;0.90;;;15.60;43.30;;;;;;10392047;28;20246;-75
2023/10/21 23:25:32;;;;;;;1.20;1.10;;;15.70;44.00;;;;;;10390506;28;20237;-74
2023/10/21 23:30:36;;;;;;;1.30;1.10;;;15.70;43.60;;;;;;10391343;28;20284;-74
2023/10/21 23:35:40;;;;;;;1.10;1.10;;;15.80;43.70;;;;;;10394892;28;20229;-75
2023/10/21 23:40:45;;;;;;;1.30;1.20;;;15.90;44.70;;;;;;10395729;28;20240;-75
2023/10/21 23:45:48;;;;;;;1.43;1.00;;;16.00;43.40;;;;;;10392449;28;20232;-75
2023/10/21 23:50:53;;;;;;;1.30;0.93;;;16.00;43.20;;;;;;10389071;28;20713;-75
2023/10/21 23:55:56;;;;;;;1.00;1.00;;;15.90;43.40;;;;;;10387932;28;20233;-75
